sensor_id;sensor_type;location;lat;lon;timestamp;P1;durP1;ratioP1;P2;durP2;ratioP2
2548;SDS011;1284;53.520;10.248;2023-06-26T00:00:13;3.83;;;2.60;;
2548;SDS011;1284;53.520;10.248;2023-06-26T00:02:39;4.03;;;2.58;;
2548;SDS011;1284;53.520;10.248;2023-06-26T00:05:05;4.25;;;2.63;;
2548;SDS011;1284;53.520;10.248;2023-06-26T00:07:31;5.50;;;2.80;;
2548;SDS011;1284;53.520;10.248;2023-06-26T00:09:59;5.03;;;3.25;;
2548;SDS011;1284;53.520;10.248;2023-06-26T00:12:25;3.72;;;2.65;;
2548;SDS011;1284;53.520;10.248;2023-06-26T00:14:51;2.88;;;2.30;;
2548;SDS011;1284;53.520;10.248;2023-06-26T00:17:17;5.78;;;3.10;;
2548;SDS011;1284;53.520;10.248;2023-06-26T00:19:43;5.93;;;2.72;;
2548;SDS011;1284;53.520;10.248;2023-06-26T00:22:11;5.07;;;2.80;;
2548;SDS011;1284;53.520;10.248;2023-06-26T00:24:36;3.70;;;2.40;;
2548;SDS011;1284;53.520;10.248;2023-06-26T00:27:02;4.30;;;2.75;;
2548;SDS011;1284;53.520;10.248;2023-06-26T00:29:27;3.20;;;2.20;;
2548;SDS011;1284;53.520;10.248;2023-06-26T00:31:53;3.47;;;2.40;;
2548;SDS011;1284;53.520;10.248;2023-06-26T00:34:18;2.85;;;2.03;;
2548;SDS011;1284;53.520;10.248;2023-06-26T00:36:45;4.75;;;3.20;;
2548;SDS011;1284;53.520;10.248;2023-06-26T00:39:11;3.47;;;2.10;;
2548;SDS011;1284;53.520;10.248;2023-06-26T00:41:37;4.68;;;2.70;;
2548;SDS011;1284;53.520;10.248;2023-06-26T00:44:03;4.25;;;2.33;;
2548;SDS011;1284;53.520;10.248;2023-06-26T00:46:29;3.83;;;2.72;;
2548;SDS011;1284;53.520;10.248;2023-06-26T00:48:55;3.05;;;2.30;;
2548;SDS011;1284;53.520;10.248;2023-06-26T00:51:24;3.10;;;2.45;;
2548;SDS011;1284;53.520;10.248;2023-06-26T00:53:49;2.83;;;2.33;;
2548;SDS011;1284;53.520;10.248;2023-06-26T00:56:17;3.28;;;2.33;;
2548;SDS011;1284;53.520;10.248;2023-06-26T00:58:44;3.58;;;2.60;;
2548;SDS011;1284;53.520;10.248;2023-06-26T01:01:10;4.30;;;2.80;;
2548;SDS011;1284;53.520;10.248;2023-06-26T01:03:41;2.92;;;2.17;;
2548;SDS011;1284;53.520;10.248;2023-06-26T01:06:07;3.17;;;2.30;;
2548;SDS011;1284;53.520;10.248;2023-06-26T01:08:37;4.28;;;2.60;;
2548;SDS011;1284;53.520;10.248;2023-06-26T01:11:03;3.60;;;2.63;;
2548;SDS011;1284;53.520;10.248;2023-06-26T01:13:29;3.67;;;2.20;;
2548;SDS011;1284;53.520;10.248;2023-06-26T01:15:57;4.13;;;2.50;;
2548;SDS011;1284;53.520;10.248;2023-06-26T01:18:25;9.35;;;4.55;;
2548;SDS011;1284;53.520;10.248;2023-06-26T01:20:51;5.40;;;2.83;;
2548;SDS011;1284;53.520;10.248;2023-06-26T01:23:20;2.58;;;1.70;;
2548;SDS011;1284;53.520;10.248;2023-06-26T01:28:33;3.45;;;2.22;;
2548;SDS011;1284;53.520;10.248;2023-06-26T01:31:02;3.75;;;2.25;;
2548;SDS011;1284;53.520;10.248;2023-06-26T01:33:31;3.58;;;2.38;;
2548;SDS011;1284;53.520;10.248;2023-06-26T01:35:57;2.72;;;2.25;;
2548;SDS011;1284;53.520;10.248;2023-06-26T01:38:22;4.07;;;2.47;;
2548;SDS011;1284;53.520;10.248;2023-06-26T01:40:56;5.15;;;2.13;;
2548;SDS011;1284;53.520;10.248;2023-06-26T01:43:24;3.85;;;2.33;;
2548;SDS011;1284;53.520;10.248;2023-06-26T01:48:59;3.75;;;2.13;;
2548;SDS011;1284;53.520;10.248;2023-06-26T01:53:56;3.33;;;2.20;;
2548;SDS011;1284;53.520;10.248;2023-06-26T01:56:24;4.15;;;2.25;;
2548;SDS011;1284;53.520;10.248;2023-06-26T01:58:50;4.00;;;1.90;;
2548;SDS011;1284;53.520;10.248;2023-06-26T02:01:21;2.40;;;2.10;;
2548;SDS011;1284;53.520;10.248;2023-06-26T02:03:47;4.22;;;2.20;;
2548;SDS011;1284;53.520;10.248;2023-06-26T02:06:33;2.63;;;2.00;;
2548;SDS011;1284;53.520;10.248;2023-06-26T02:08:58;4.78;;;2.53;;
2548;SDS011;1284;53.520;10.248;2023-06-26T02:11:23;5.25;;;2.50;;
2548;SDS011;1284;53.520;10.248;2023-06-26T02:13:49;2.72;;;1.88;;
2548;SDS011;1284;53.520;10.248;2023-06-26T02:16:14;2.35;;;1.95;;
2548;SDS011;1284;53.520;10.248;2023-06-26T02:18:41;3.33;;;2.20;;
2548;SDS011;1284;53.520;10.248;2023-06-26T02:21:06;3.53;;;2.42;;
2548;SDS011;1284;53.520;10.248;2023-06-26T02:23:32;3.08;;;2.22;;
2548;SDS011;1284;53.520;10.248;2023-06-26T02:25:57;4.55;;;2.45;;
2548;SDS011;1284;53.520;10.248;2023-06-26T02:28:23;2.90;;;2.20;;
2548;SDS011;1284;53.520;10.248;2023-06-26T02:30:48;3.50;;;2.50;;
2548;SDS011;1284;53.520;10.248;2023-06-26T02:33:14;3.60;;;2.33;;
2548;SDS011;1284;53.520;10.248;2023-06-26T02:35:39;2.15;;;1.90;;
2548;SDS011;1284;53.520;10.248;2023-06-26T02:38:05;4.13;;;2.20;;
2548;SDS011;1284;53.520;10.248;2023-06-26T02:40:31;3.58;;;2.45;;
2548;SDS011;1284;53.520;10.248;2023-06-26T02:42:58;4.97;;;2.38;;
2548;SDS011;1284;53.520;10.248;2023-06-26T02:45:23;3.50;;;2.10;;
2548;SDS011;1284;53.520;10.248;2023-06-26T02:47:49;2.88;;;2.28;;
2548;SDS011;1284;53.520;10.248;2023-06-26T02:50:14;4.93;;;2.30;;
2548;SDS011;1284;53.520;10.248;2023-06-26T02:52:59;4.28;;;2.50;;
2548;SDS011;1284;53.520;10.248;2023-06-26T02:55:25;4.00;;;2.70;;
2548;SDS011;1284;53.520;10.248;2023-06-26T02:57:51;3.25;;;2.15;;
2548;SDS011;1284;53.520;10.248;2023-06-26T03:00:17;2.80;;;1.83;;
2548;SDS011;1284;53.520;10.248;2023-06-26T03:02:47;3.92;;;2.20;;
2548;SDS011;1284;53.520;10.248;2023-06-26T03:05:16;2.58;;;1.85;;
2548;SDS011;1284;53.520;10.248;2023-06-26T03:07:42;2.42;;;1.70;;
2548;SDS011;1284;53.520;10.248;2023-06-26T03:10:09;3.45;;;2.30;;
2548;SDS011;1284;53.520;10.248;2023-06-26T03:12:34;2.92;;;2.05;;
2548;SDS011;1284;53.520;10.248;2023-06-26T03:15:00;3.67;;;2.05;;
2548;SDS011;1284;53.520;10.248;2023-06-26T03:17:26;3.17;;;2.20;;
2548;SDS011;1284;53.520;10.248;2023-06-26T03:19:54;2.78;;;1.92;;
2548;SDS011;1284;53.520;10.248;2023-06-26T03:22:28;2.95;;;1.98;;
2548;SDS011;1284;53.520;10.248;2023-06-26T03:24:54;3.67;;;2.05;;
2548;SDS011;1284;53.520;10.248;2023-06-26T03:27:20;3.05;;;1.83;;
2548;SDS011;1284;53.520;10.248;2023-06-26T03:29:47;3.58;;;2.28;;
2548;SDS011;1284;53.520;10.248;2023-06-26T03:32:13;4.25;;;1.73;;
2548;SDS011;1284;53.520;10.248;2023-06-26T03:34:39;4.15;;;2.40;;
2548;SDS011;1284;53.520;10.248;2023-06-26T03:37:05;4.38;;;2.05;;
2548;SDS011;1284;53.520;10.248;2023-06-26T03:39:30;3.83;;;2.25;;
2548;SDS011;1284;53.520;10.248;2023-06-26T03:41:56;3.13;;;1.88;;
2548;SDS011;1284;53.520;10.248;2023-06-26T03:44:25;3.13;;;2.00;;
2548;SDS011;1284;53.520;10.248;2023-06-26T03:46:51;3.90;;;2.22;;
2548;SDS011;1284;53.520;10.248;2023-06-26T03:49:16;3.03;;;2.22;;
2548;SDS011;1284;53.520;10.248;2023-06-26T03:51:43;2.92;;;2.05;;
2548;SDS011;1284;53.520;10.248;2023-06-26T03:54:09;3.35;;;2.13;;
2548;SDS011;1284;53.520;10.248;2023-06-26T03:56:34;3.55;;;2.30;;
2548;SDS011;1284;53.520;10.248;2023-06-26T03:58:59;2.78;;;2.00;;
2548;SDS011;1284;53.520;10.248;2023-06-26T04:01:25;6.25;;;2.20;;
2548;SDS011;1284;53.520;10.248;2023-06-26T04:03:51;2.92;;;1.90;;
2548;SDS011;1284;53.520;10.248;2023-06-26T04:06:17;3.15;;;1.83;;
2548;SDS011;1284;53.520;10.248;2023-06-26T04:08:42;3.03;;;2.10;;
2548;SDS011;1284;53.520;10.248;2023-06-26T04:11:28;3.90;;;2.17;;
2548;SDS011;1284;53.520;10.248;2023-06-26T04:13:54;2.72;;;1.98;;
2548;SDS011;1284;53.520;10.248;2023-06-26T04:16:20;2.78;;;1.95;;
2548;SDS011;1284;53.520;10.248;2023-06-26T04:18:46;3.65;;;2.22;;
2548;SDS011;1284;53.520;10.248;2023-06-26T04:21:12;3.40;;;2.45;;
2548;SDS011;1284;53.520;10.248;2023-06-26T04:23:38;4.25;;;2.35;;
2548;SDS011;1284;53.520;10.248;2023-06-26T04:26:05;3.58;;;1.92;;
2548;SDS011;1284;53.520;10.248;2023-06-26T04:28:34;3.08;;;1.90;;
2548;SDS011;1284;53.520;10.248;2023-06-26T04:31:01;2.50;;;1.83;;
2548;SDS011;1284;53.520;10.248;2023-06-26T04:33:28;2.20;;;1.83;;
2548;SDS011;1284;53.520;10.248;2023-06-26T04:35:54;4.10;;;2.50;;
2548;SDS011;1284;53.520;10.248;2023-06-26T04:38:19;3.05;;;2.00;;
2548;SDS011;1284;53.520;10.248;2023-06-26T04:40:46;3.35;;;1.95;;
2548;SDS011;1284;53.520;10.248;2023-06-26T04:43:12;3.85;;;2.35;;
2548;SDS011;1284;53.520;10.248;2023-06-26T04:45:38;3.25;;;1.98;;
2548;SDS011;1284;53.520;10.248;2023-06-26T04:48:04;3.40;;;2.42;;
2548;SDS011;1284;53.520;10.248;2023-06-26T04:50:30;3.13;;;1.98;;
2548;SDS011;1284;53.520;10.248;2023-06-26T04:52:56;3.28;;;1.92;;
2548;SDS011;1284;53.520;10.248;2023-06-26T04:55:23;3.20;;;2.22;;
2548;SDS011;1284;53.520;10.248;2023-06-26T04:57:49;4.88;;;2.08;;
2548;SDS011;1284;53.520;10.248;2023-06-26T05:00:15;2.80;;;1.95;;
2548;SDS011;1284;53.520;10.248;2023-06-26T05:02:41;2.78;;;1.83;;
2548;SDS011;1284;53.520;10.248;2023-06-26T05:05:06;2.95;;;1.77;;
2548;SDS011;1284;53.520;10.248;2023-06-26T05:07:32;3.47;;;2.17;;
2548;SDS011;1284;53.520;10.248;2023-06-26T05:09:57;4.57;;;2.40;;
2548;SDS011;1284;53.520;10.248;2023-06-26T05:12:23;5.20;;;2.58;;
2548;SDS011;1284;53.520;10.248;2023-06-26T05:14:48;3.17;;;2.05;;
2548;SDS011;1284;53.520;10.248;2023-06-26T05:17:14;3.20;;;1.90;;
2548;SDS011;1284;53.520;10.248;2023-06-26T05:19:39;3.00;;;2.05;;
2548;SDS011;1284;53.520;10.248;2023-06-26T05:22:05;3.78;;;2.40;;
2548;SDS011;1284;53.520;10.248;2023-06-26T05:24:33;2.90;;;1.75;;
2548;SDS011;1284;53.520;10.248;2023-06-26T05:27:01;3.63;;;2.13;;
2548;SDS011;1284;53.520;10.248;2023-06-26T05:29:33;3.83;;;2.42;;
2548;SDS011;1284;53.520;10.248;2023-06-26T05:31:59;2.88;;;2.00;;
2548;SDS011;1284;53.520;10.248;2023-06-26T05:34:25;3.25;;;2.05;;
2548;SDS011;1284;53.520;10.248;2023-06-26T05:36:59;3.38;;;2.10;;
2548;SDS011;1284;53.520;10.248;2023-06-26T05:39:26;3.45;;;2.22;;
2548;SDS011;1284;53.520;10.248;2023-06-26T05:41:52;2.22;;;1.70;;
2548;SDS011;1284;53.520;10.248;2023-06-26T05:44:18;2.88;;;1.80;;
2548;SDS011;1284;53.520;10.248;2023-06-26T05:46:46;3.10;;;1.92;;
2548;SDS011;1284;53.520;10.248;2023-06-26T05:49:11;2.85;;;2.03;;
2548;SDS011;1284;53.520;10.248;2023-06-26T05:51:37;2.20;;;1.70;;
2548;SDS011;1284;53.520;10.248;2023-06-26T05:54:02;2.22;;;1.70;;
2548;SDS011;1284;53.520;10.248;2023-06-26T05:56:28;2.92;;;1.83;;
2548;SDS011;1284;53.520;10.248;2023-06-26T05:58:54;2.15;;;1.92;;
2548;SDS011;1284;53.520;10.248;2023-06-26T06:01:21;2.63;;;1.77;;
2548;SDS011;1284;53.520;10.248;2023-06-26T06:03:46;3.38;;;2.00;;
2548;SDS011;1284;53.520;10.248;2023-06-26T06:06:12;5.35;;;1.90;;
2548;SDS011;1284;53.520;10.248;2023-06-26T06:08:38;3.25;;;2.03;;
2548;SDS011;1284;53.520;10.248;2023-06-26T06:11:03;2.10;;;1.65;;
2548;SDS011;1284;53.520;10.248;2023-06-26T06:13:29;3.33;;;2.00;;
2548;SDS011;1284;53.520;10.248;2023-06-26T06:15:54;1.92;;;1.70;;
2548;SDS011;1284;53.520;10.248;2023-06-26T06:18:20;2.90;;;2.00;;
2548;SDS011;1284;53.520;10.248;2023-06-26T06:20:46;3.60;;;2.08;;
2548;SDS011;1284;53.520;10.248;2023-06-26T06:23:12;3.05;;;2.08;;
2548;SDS011;1284;53.520;10.248;2023-06-26T06:25:37;3.83;;;2.10;;
2548;SDS011;1284;53.520;10.248;2023-06-26T06:28:03;2.42;;;1.75;;
2548;SDS011;1284;53.520;10.248;2023-06-26T06:30:29;2.88;;;1.98;;
2548;SDS011;1284;53.520;10.248;2023-06-26T06:32:55;7.88;;;1.85;;
2548;SDS011;1284;53.520;10.248;2023-06-26T06:35:20;2.88;;;1.80;;
2548;SDS011;1284;53.520;10.248;2023-06-26T06:37:46;2.47;;;1.60;;
2548;SDS011;1284;53.520;10.248;2023-06-26T06:40:12;2.90;;;2.00;;
2548;SDS011;1284;53.520;10.248;2023-06-26T06:42:38;2.97;;;1.77;;
2548;SDS011;1284;53.520;10.248;2023-06-26T06:45:04;2.92;;;2.08;;
2548;SDS011;1284;53.520;10.248;2023-06-26T06:47:33;3.15;;;1.80;;
2548;SDS011;1284;53.520;10.248;2023-06-26T06:49:59;3.05;;;1.88;;
2548;SDS011;1284;53.520;10.248;2023-06-26T06:52:34;2.13;;;1.58;;
2548;SDS011;1284;53.520;10.248;2023-06-26T06:55:00;3.17;;;1.77;;
2548;SDS011;1284;53.520;10.248;2023-06-26T06:57:30;2.13;;;1.70;;
2548;SDS011;1284;53.520;10.248;2023-06-26T06:59:56;2.67;;;1.67;;
2548;SDS011;1284;53.520;10.248;2023-06-26T07:02:21;2.75;;;1.60;;
2548;SDS011;1284;53.520;10.248;2023-06-26T07:04:47;3.50;;;1.67;;
2548;SDS011;1284;53.520;10.248;2023-06-26T07:07:12;3.58;;;2.17;;
2548;SDS011;1284;53.520;10.248;2023-06-26T07:09:39;2.13;;;1.70;;
2548;SDS011;1284;53.520;10.248;2023-06-26T07:12:04;2.92;;;1.75;;
2548;SDS011;1284;53.520;10.248;2023-06-26T07:14:30;2.30;;;1.55;;
2548;SDS011;1284;53.520;10.248;2023-06-26T07:16:56;6.47;;;1.75;;
2548;SDS011;1284;53.520;10.248;2023-06-26T07:19:21;2.67;;;1.50;;
2548;SDS011;1284;53.520;10.248;2023-06-26T07:21:47;3.03;;;1.85;;
2548;SDS011;1284;53.520;10.248;2023-06-26T07:24:15;2.92;;;1.50;;
2548;SDS011;1284;53.520;10.248;2023-06-26T07:26:40;3.70;;;1.88;;
2548;SDS011;1284;53.520;10.248;2023-06-26T07:29:06;2.42;;;1.80;;
2548;SDS011;1284;53.520;10.248;2023-06-26T07:31:32;1.70;;;1.52;;
2548;SDS011;1284;53.520;10.248;2023-06-26T07:33:57;2.08;;;1.70;;
2548;SDS011;1284;53.520;10.248;2023-06-26T07:36:23;3.00;;;1.55;;
2548;SDS011;1284;53.520;10.248;2023-06-26T07:38:48;3.20;;;1.75;;
2548;SDS011;1284;53.520;10.248;2023-06-26T07:41:13;3.30;;;1.85;;
2548;SDS011;1284;53.520;10.248;2023-06-26T07:43:39;1.60;;;1.40;;
2548;SDS011;1284;53.520;10.248;2023-06-26T07:46:04;2.53;;;1.58;;
2548;SDS011;1284;53.520;10.248;2023-06-26T07:48:30;2.53;;;1.80;;
2548;SDS011;1284;53.520;10.248;2023-06-26T07:50:55;2.65;;;1.88;;
2548;SDS011;1284;53.520;10.248;2023-06-26T07:53:21;2.35;;;1.52;;
2548;SDS011;1284;53.520;10.248;2023-06-26T07:55:46;2.95;;;1.73;;
2548;SDS011;1284;53.520;10.248;2023-06-26T07:58:12;3.22;;;1.98;;
2548;SDS011;1284;53.520;10.248;2023-06-26T08:00:37;2.03;;;1.80;;
2548;SDS011;1284;53.520;10.248;2023-06-26T08:03:03;2.60;;;1.63;;
2548;SDS011;1284;53.520;10.248;2023-06-26T08:05:29;3.10;;;1.80;;
2548;SDS011;1284;53.520;10.248;2023-06-26T08:07:54;4.07;;;2.15;;
2548;SDS011;1284;53.520;10.248;2023-06-26T08:10:20;2.95;;;1.75;;
2548;SDS011;1284;53.520;10.248;2023-06-26T08:12:45;3.22;;;1.52;;
2548;SDS011;1284;53.520;10.248;2023-06-26T08:15:12;2.50;;;1.70;;
2548;SDS011;1284;53.520;10.248;2023-06-26T08:17:37;2.83;;;1.88;;
2548;SDS011;1284;53.520;10.248;2023-06-26T08:20:04;2.50;;;1.85;;
2548;SDS011;1284;53.520;10.248;2023-06-26T08:22:30;2.95;;;1.75;;
2548;SDS011;1284;53.520;10.248;2023-06-26T08:24:56;3.35;;;1.75;;
2548;SDS011;1284;53.520;10.248;2023-06-26T08:27:22;3.30;;;1.88;;
2548;SDS011;1284;53.520;10.248;2023-06-26T08:29:47;3.72;;;2.17;;
2548;SDS011;1284;53.520;10.248;2023-06-26T08:32:13;2.15;;;1.95;;
2548;SDS011;1284;53.520;10.248;2023-06-26T08:34:39;2.42;;;1.50;;
2548;SDS011;1284;53.520;10.248;2023-06-26T08:37:05;3.42;;;2.22;;
2548;SDS011;1284;53.520;10.248;2023-06-26T08:39:30;3.67;;;1.90;;
2548;SDS011;1284;53.520;10.248;2023-06-26T08:41:56;2.55;;;1.73;;
2548;SDS011;1284;53.520;10.248;2023-06-26T08:44:21;3.63;;;2.00;;
2548;SDS011;1284;53.520;10.248;2023-06-26T08:46:53;2.10;;;1.50;;
2548;SDS011;1284;53.520;10.248;2023-06-26T08:52:22;3.25;;;1.83;;
2548;SDS011;1284;53.520;10.248;2023-06-26T08:54:52;4.13;;;1.80;;
2548;SDS011;1284;53.520;10.248;2023-06-26T08:57:22;2.85;;;1.60;;
2548;SDS011;1284;53.520;10.248;2023-06-26T08:59:48;2.65;;;1.70;;
2548;SDS011;1284;53.520;10.248;2023-06-26T09:02:14;4.57;;;1.80;;
2548;SDS011;1284;53.520;10.248;2023-06-26T09:04:41;2.88;;;1.50;;
2548;SDS011;1284;53.520;10.248;2023-06-26T09:07:08;3.38;;;1.90;;
2548;SDS011;1284;53.520;10.248;2023-06-26T09:09:34;2.78;;;1.67;;
2548;SDS011;1284;53.520;10.248;2023-06-26T09:12:01;3.63;;;1.55;;
2548;SDS011;1284;53.520;10.248;2023-06-26T09:14:27;2.35;;;1.67;;
2548;SDS011;1284;53.520;10.248;2023-06-26T09:16:54;5.45;;;1.88;;
2548;SDS011;1284;53.520;10.248;2023-06-26T09:19:20;2.42;;;1.80;;
2548;SDS011;1284;53.520;10.248;2023-06-26T09:21:46;2.30;;;1.73;;
2548;SDS011;1284;53.520;10.248;2023-06-26T09:24:15;3.70;;;1.98;;
2548;SDS011;1284;53.520;10.248;2023-06-26T09:26:44;3.28;;;1.83;;
2548;SDS011;1284;53.520;10.248;2023-06-26T09:29:10;2.30;;;1.40;;
2548;SDS011;1284;53.520;10.248;2023-06-26T09:31:39;4.03;;;1.98;;
2548;SDS011;1284;53.520;10.248;2023-06-26T09:34:06;3.05;;;1.80;;
2548;SDS011;1284;53.520;10.248;2023-06-26T09:36:32;3.03;;;2.03;;
2548;SDS011;1284;53.520;10.248;2023-06-26T09:38:59;2.97;;;2.00;;
2548;SDS011;1284;53.520;10.248;2023-06-26T09:41:26;3.90;;;2.05;;
2548;SDS011;1284;53.520;10.248;2023-06-26T09:43:51;4.85;;;1.88;;
2548;SDS011;1284;53.520;10.248;2023-06-26T09:46:17;3.33;;;2.15;;
2548;SDS011;1284;53.520;10.248;2023-06-26T09:49:03;3.55;;;2.40;;
2548;SDS011;1284;53.520;10.248;2023-06-26T09:51:37;2.75;;;1.98;;
2548;SDS011;1284;53.520;10.248;2023-06-26T09:54:04;2.75;;;1.90;;
2548;SDS011;1284;53.520;10.248;2023-06-26T09:56:30;4.40;;;2.55;;
2548;SDS011;1284;53.520;10.248;2023-06-26T09:58:59;3.33;;;2.17;;
2548;SDS011;1284;53.520;10.248;2023-06-26T10:01:31;3.63;;;2.00;;
2548;SDS011;1284;53.520;10.248;2023-06-26T10:03:58;3.53;;;2.38;;
2548;SDS011;1284;53.520;10.248;2023-06-26T10:06:27;5.00;;;2.40;;
2548;SDS011;1284;53.520;10.248;2023-06-26T10:08:58;3.42;;;2.47;;
2548;SDS011;1284;53.520;10.248;2023-06-26T10:11:27;3.40;;;2.17;;
2548;SDS011;1284;53.520;10.248;2023-06-26T10:14:21;5.30;;;2.28;;
2548;SDS011;1284;53.520;10.248;2023-06-26T10:16:49;3.97;;;2.63;;
2548;SDS011;1284;53.520;10.248;2023-06-26T10:19:16;3.20;;;1.90;;
2548;SDS011;1284;53.520;10.248;2023-06-26T10:21:50;4.95;;;3.03;;
2548;SDS011;1284;53.520;10.248;2023-06-26T10:24:17;4.25;;;2.30;;
2548;SDS011;1284;53.520;10.248;2023-06-26T10:26:44;3.05;;;2.15;;
2548;SDS011;1284;53.520;10.248;2023-06-26T10:29:12;3.42;;;2.20;;
2548;SDS011;1284;53.520;10.248;2023-06-26T10:31:40;3.47;;;2.53;;
2548;SDS011;1284;53.520;10.248;2023-06-26T10:34:10;3.88;;;2.38;;
2548;SDS011;1284;53.520;10.248;2023-06-26T10:36:36;3.70;;;2.47;;
2548;SDS011;1284;53.520;10.248;2023-06-26T10:39:06;3.67;;;2.65;;
2548;SDS011;1284;53.520;10.248;2023-06-26T10:41:38;4.40;;;2.72;;
2548;SDS011;1284;53.520;10.248;2023-06-26T10:44:16;7.53;;;3.20;;
2548;SDS011;1284;53.520;10.248;2023-06-26T10:46:51;4.63;;;2.47;;
2548;SDS011;1284;53.520;10.248;2023-06-26T10:49:28;3.47;;;2.40;;
2548;SDS011;1284;53.520;10.248;2023-06-26T10:52:00;3.87;;;2.33;;
2548;SDS011;1284;53.520;10.248;2023-06-26T10:54:30;3.17;;;2.00;;
2548;SDS011;1284;53.520;10.248;2023-06-26T10:56:57;2.20;;;1.50;;
2548;SDS011;1284;53.520;10.248;2023-06-26T10:59:24;2.53;;;1.63;;
2548;SDS011;1284;53.520;10.248;2023-06-26T11:01:58;2.33;;;1.85;;
2548;SDS011;1284;53.520;10.248;2023-06-26T11:07:17;2.20;;;1.52;;
2548;SDS011;1284;53.520;10.248;2023-06-26T11:09:59;3.53;;;1.33;;
2548;SDS011;1284;53.520;10.248;2023-06-26T11:12:44;3.25;;;2.00;;
2548;SDS011;1284;53.520;10.248;2023-06-26T11:15:16;3.22;;;1.88;;
2548;SDS011;1284;53.520;10.248;2023-06-26T11:17:44;3.28;;;2.03;;
2548;SDS011;1284;53.520;10.248;2023-06-26T11:20:13;4.25;;;2.03;;
2548;SDS011;1284;53.520;10.248;2023-06-26T11:22:41;2.00;;;1.60;;
2548;SDS011;1284;53.520;10.248;2023-06-26T11:25:08;3.45;;;1.85;;
2548;SDS011;1284;53.520;10.248;2023-06-26T11:30:05;3.45;;;2.10;;
2548;SDS011;1284;53.520;10.248;2023-06-26T11:32:31;3.33;;;1.73;;
2548;SDS011;1284;53.520;10.248;2023-06-26T11:34:58;3.85;;;1.70;;
2548;SDS011;1284;53.520;10.248;2023-06-26T11:37:28;4.35;;;1.90;;
2548;SDS011;1284;53.520;10.248;2023-06-26T11:39:54;2.10;;;1.52;;
2548;SDS011;1284;53.520;10.248;2023-06-26T11:42:19;2.47;;;1.52;;
2548;SDS011;1284;53.520;10.248;2023-06-26T11:44:46;3.50;;;1.75;;
2548;SDS011;1284;53.520;10.248;2023-06-26T11:47:12;2.33;;;1.48;;
2548;SDS011;1284;53.520;10.248;2023-06-26T11:49:42;2.15;;;1.55;;
2548;SDS011;1284;53.520;10.248;2023-06-26T11:52:11;2.58;;;1.63;;
2548;SDS011;1284;53.520;10.248;2023-06-26T11:54:37;3.70;;;1.48;;
2548;SDS011;1284;53.520;10.248;2023-06-26T11:57:04;4.45;;;1.65;;
2548;SDS011;1284;53.520;10.248;2023-06-26T11:59:33;2.05;;;1.23;;
2548;SDS011;1284;53.520;10.248;2023-06-26T12:02:08;2.53;;;0.95;;
2548;SDS011;1284;53.520;10.248;2023-06-26T12:04:38;3.08;;;1.05;;
2548;SDS011;1284;53.520;10.248;2023-06-26T12:07:06;1.77;;;0.95;;
2548;SDS011;1284;53.520;10.248;2023-06-26T12:09:34;2.50;;;0.82;;
2548;SDS011;1284;53.520;10.248;2023-06-26T12:12:07;1.33;;;0.95;;
2548;SDS011;1284;53.520;10.248;2023-06-26T12:14:34;1.38;;;1.00;;
2548;SDS011;1284;53.520;10.248;2023-06-26T12:17:08;1.35;;;1.02;;
2548;SDS011;1284;53.520;10.248;2023-06-26T12:19:36;2.20;;;1.00;;
2548;SDS011;1284;53.520;10.248;2023-06-26T12:22:07;1.17;;;0.75;;
2548;SDS011;1284;53.520;10.248;2023-06-26T12:24:33;3.92;;;1.23;;
2548;SDS011;1284;53.520;10.248;2023-06-26T12:27:00;2.17;;;0.80;;
2548;SDS011;1284;53.520;10.248;2023-06-26T12:29:31;1.77;;;1.10;;
2548;SDS011;1284;53.520;10.248;2023-06-26T12:31:58;1.42;;;0.65;;
2548;SDS011;1284;53.520;10.248;2023-06-26T12:34:27;1.42;;;0.90;;
2548;SDS011;1284;53.520;10.248;2023-06-26T12:37:00;3.60;;;1.27;;
2548;SDS011;1284;53.520;10.248;2023-06-26T12:39:28;0.77;;;0.73;;
2548;SDS011;1284;53.520;10.248;2023-06-26T12:41:54;1.65;;;0.70;;
2548;SDS011;1284;53.520;10.248;2023-06-26T12:46:58;1.13;;;0.65;;
2548;SDS011;1284;53.520;10.248;2023-06-26T12:49:29;5.13;;;1.20;;
2548;SDS011;1284;53.520;10.248;2023-06-26T12:51:59;1.75;;;0.80;;
2548;SDS011;1284;53.520;10.248;2023-06-26T12:54:26;4.53;;;0.82;;
2548;SDS011;1284;53.520;10.248;2023-06-26T12:56:52;1.67;;;0.60;;
2548;SDS011;1284;53.520;10.248;2023-06-26T12:59:18;2.38;;;0.70;;
2548;SDS011;1284;53.520;10.248;2023-06-26T13:02:03;1.13;;;0.70;;
2548;SDS011;1284;53.520;10.248;2023-06-26T13:04:30;0.98;;;0.55;;
2548;SDS011;1284;53.520;10.248;2023-06-26T13:06:55;2.13;;;0.60;;
2548;SDS011;1284;53.520;10.248;2023-06-26T13:09:22;0.90;;;0.63;;
2548;SDS011;1284;53.520;10.248;2023-06-26T13:11:49;1.35;;;0.50;;
2548;SDS011;1284;53.520;10.248;2023-06-26T13:14:14;1.30;;;0.52;;
2548;SDS011;1284;53.520;10.248;2023-06-26T13:16:40;0.95;;;0.57;;
2548;SDS011;1284;53.520;10.248;2023-06-26T13:19:06;0.35;;;0.30;;
2548;SDS011;1284;53.520;10.248;2023-06-26T13:21:31;0.77;;;0.63;;
2548;SDS011;1284;53.520;10.248;2023-06-26T13:23:57;0.57;;;0.50;;
2548;SDS011;1284;53.520;10.248;2023-06-26T13:26:24;0.68;;;0.35;;
2548;SDS011;1284;53.520;10.248;2023-06-26T13:28:51;5.38;;;0.60;;
2548;SDS011;1284;53.520;10.248;2023-06-26T13:31:17;1.35;;;0.50;;
2548;SDS011;1284;53.520;10.248;2023-06-26T13:33:43;3.35;;;0.50;;
2548;SDS011;1284;53.520;10.248;2023-06-26T13:36:09;1.15;;;0.60;;
2548;SDS011;1284;53.520;10.248;2023-06-26T13:38:55;3.45;;;0.60;;
2548;SDS011;1284;53.520;10.248;2023-06-26T13:41:22;1.08;;;0.50;;
2548;SDS011;1284;53.520;10.248;2023-06-26T13:43:48;1.15;;;0.60;;
2548;SDS011;1284;53.520;10.248;2023-06-26T13:46:15;1.90;;;0.40;;
2548;SDS011;1284;53.520;10.248;2023-06-26T13:48:41;1.65;;;0.28;;
2548;SDS011;1284;53.520;10.248;2023-06-26T13:51:06;2.25;;;0.80;;
2548;SDS011;1284;53.520;10.248;2023-06-26T13:53:32;0.63;;;0.30;;
2548;SDS011;1284;53.520;10.248;2023-06-26T13:55:57;3.92;;;0.63;;
2548;SDS011;1284;53.520;10.248;2023-06-26T13:58:23;1.10;;;0.60;;
2548;SDS011;1284;53.520;10.248;2023-06-26T14:00:51;0.95;;;0.50;;
2548;SDS011;1284;53.520;10.248;2023-06-26T14:03:17;3.50;;;0.50;;
2548;SDS011;1284;53.520;10.248;2023-06-26T14:05:43;0.50;;;0.40;;
2548;SDS011;1284;53.520;10.248;2023-06-26T14:08:11;1.63;;;0.88;;
2548;SDS011;1284;53.520;10.248;2023-06-26T14:10:36;0.40;;;0.40;;
2548;SDS011;1284;53.520;10.248;2023-06-26T14:13:02;0.88;;;0.57;;
2548;SDS011;1284;53.520;10.248;2023-06-26T14:15:29;1.65;;;0.68;;
2548;SDS011;1284;53.520;10.248;2023-06-26T14:17:55;0.40;;;0.32;;
2548;SDS011;1284;53.520;10.248;2023-06-26T14:20:21;1.30;;;0.52;;
2548;SDS011;1284;53.520;10.248;2023-06-26T14:22:48;1.83;;;0.32;;
2548;SDS011;1284;53.520;10.248;2023-06-26T14:25:14;1.35;;;0.60;;
2548;SDS011;1284;53.520;10.248;2023-06-26T14:27:42;2.30;;;0.50;;
2548;SDS011;1284;53.520;10.248;2023-06-26T14:30:08;1.05;;;0.40;;
2548;SDS011;1284;53.520;10.248;2023-06-26T14:32:34;0.95;;;0.60;;
2548;SDS011;1284;53.520;10.248;2023-06-26T14:35:20;0.90;;;0.60;;
2548;SDS011;1284;53.520;10.248;2023-06-26T14:37:45;0.50;;;0.43;;
2548;SDS011;1284;53.520;10.248;2023-06-26T14:40:11;0.75;;;0.32;;
2548;SDS011;1284;53.520;10.248;2023-06-26T14:42:36;0.38;;;0.30;;
2548;SDS011;1284;53.520;10.248;2023-06-26T14:45:02;1.42;;;0.30;;
2548;SDS011;1284;53.520;10.248;2023-06-26T14:47:28;1.65;;;0.50;;
2548;SDS011;1284;53.520;10.248;2023-06-26T14:49:54;1.90;;;0.45;;
2548;SDS011;1284;53.520;10.248;2023-06-26T14:52:19;0.22;;;0.20;;
2548;SDS011;1284;53.520;10.248;2023-06-26T14:54:44;0.63;;;0.40;;
2548;SDS011;1284;53.520;10.248;2023-06-26T14:57:10;0.88;;;0.50;;
2548;SDS011;1284;53.520;10.248;2023-06-26T14:59:36;0.55;;;0.30;;
2548;SDS011;1284;53.520;10.248;2023-06-26T15:02:01;2.00;;;0.40;;
2548;SDS011;1284;53.520;10.248;2023-06-26T15:04:27;1.65;;;0.20;;
2548;SDS011;1284;53.520;10.248;2023-06-26T15:06:52;0.35;;;0.32;;
2548;SDS011;1284;53.520;10.248;2023-06-26T15:09:18;0.90;;;0.40;;
2548;SDS011;1284;53.520;10.248;2023-06-26T15:11:43;0.30;;;0.20;;
2548;SDS011;1284;53.520;10.248;2023-06-26T15:14:09;0.60;;;0.30;;
2548;SDS011;1284;53.520;10.248;2023-06-26T15:16:34;0.32;;;0.20;;
2548;SDS011;1284;53.520;10.248;2023-06-26T15:19:00;1.30;;;0.32;;